sensor_id;sensor_type;location;lat;lon;timestamp;temperature;humidity
336;DHT22;156;48.738;9.228;2022-07-03T00:02:24;19.20;1.00
336;DHT22;156;48.738;9.228;2022-07-03T00:04:53;19.20;1.00
336;DHT22;156;48.738;9.228;2022-07-03T00:07:20;19.20;1.00
336;DHT22;156;48.738;9.228;2022-07-03T00:09:48;19.20;1.00
336;DHT22;156;48.738;9.228;2022-07-03T00:12:15;19.20;1.00
336;DHT22;156;48.738;9.228;2022-07-03T00:14:42;19.10;1.00
336;DHT22;156;48.738;9.228;2022-07-03T00:17:09;19.10;1.00
336;DHT22;156;48.738;9.228;2022-07-03T00:19:36;19.00;1.00
336;DHT22;156;48.738;9.228;2022-07-03T00:22:05;19.00;1.00
336;DHT22;156;48.738;9.228;2022-07-03T00:24:40;19.00;1.00
336;DHT22;156;48.738;9.228;2022-07-03T00:27:09;18.90;1.00
336;DHT22;156;48.738;9.228;2022-07-03T00:29:37;18.80;1.00
336;DHT22;156;48.738;9.228;2022-07-03T00:32:07;18.80;1.00
336;DHT22;156;48.738;9.228;2022-07-03T00:34:35;18.80;1.00
336;DHT22;156;48.738;9.228;2022-07-03T00:37:06;18.70;1.00
336;DHT22;156;48.738;9.228;2022-07-03T00:39:35;18.70;1.00
336;DHT22;156;48.738;9.228;2022-07-03T00:42:04;18.60;1.00
336;DHT22;156;48.738;9.228;2022-07-03T00:44:34;18.60;1.00
336;DHT22;156;48.738;9.228;2022-07-03T00:47:03;18.60;1.90
336;DHT22;156;48.738;9.228;2022-07-03T00:49:31;18.50;2.50
336;DHT22;156;48.738;9.228;2022-07-03T00:52:04;18.50;5.30
336;DHT22;156;48.738;9.228;2022-07-03T00:54:33;18.40;7.00
336;DHT22;156;48.738;9.228;2022-07-03T00:57:02;18.40;8.60
336;DHT22;156;48.738;9.228;2022-07-03T00:59:29;18.30;10.50
336;DHT22;156;48.738;9.228;2022-07-03T01:02:03;18.30;11.80
336;DHT22;156;48.738;9.228;2022-07-03T01:04:36;18.20;12.30
336;DHT22;156;48.738;9.228;2022-07-03T01:07:21;18.30;12.20
336;DHT22;156;48.738;9.228;2022-07-03T01:09:59;18.20;13.40
336;DHT22;156;48.738;9.228;2022-07-03T01:12:37;18.20;13.60
336;DHT22;156;48.738;9.228;2022-07-03T01:15:11;18.20;13.80
336;DHT22;156;48.738;9.228;2022-07-03T01:17:44;18.20;14.00
336;DHT22;156;48.738;9.228;2022-07-03T01:20:16;18.30;14.30
336;DHT22;156;48.738;9.228;2022-07-03T01:22:54;18.30;14.10
336;DHT22;156;48.738;9.228;2022-07-03T01:25:23;18.30;13.60
336;DHT22;156;48.738;9.228;2022-07-03T01:28:02;18.40;13.50
336;DHT22;156;48.738;9.228;2022-07-03T01:30:36;18.40;11.90
336;DHT22;156;48.738;9.228;2022-07-03T01:33:07;18.40;11.20
336;DHT22;156;48.738;9.228;2022-07-03T01:35:36;18.40;11.10
336;DHT22;156;48.738;9.228;2022-07-03T01:38:06;18.40;11.00
336;DHT22;156;48.738;9.228;2022-07-03T01:40:34;18.40;11.00
336;DHT22;156;48.738;9.228;2022-07-03T01:43:05;18.40;12.00
336;DHT22;156;48.738;9.228;2022-07-03T01:45:36;18.30;13.70
336;DHT22;156;48.738;9.228;2022-07-03T01:48:05;18.20;16.10
336;DHT22;156;48.738;9.228;2022-07-03T01:50:33;18.10;18.00
336;DHT22;156;48.738;9.228;2022-07-03T01:53:02;18.10;19.60
336;DHT22;156;48.738;9.228;2022-07-03T01:55:33;18.10;21.20
336;DHT22;156;48.738;9.228;2022-07-03T01:58:02;18.00;23.10
336;DHT22;156;48.738;9.228;2022-07-03T02:00:31;18.00;24.90
336;DHT22;156;48.738;9.228;2022-07-03T02:03:04;18.00;26.40
336;DHT22;156;48.738;9.228;2022-07-03T02:05:36;17.90;28.60
336;DHT22;156;48.738;9.228;2022-07-03T02:08:15;17.90;31.10
336;DHT22;156;48.738;9.228;2022-07-03T02:10:47;17.90;32.70
336;DHT22;156;48.738;9.228;2022-07-03T02:13:23;17.90;35.40
336;DHT22;156;48.738;9.228;2022-07-03T02:15:51;17.90;37.70
336;DHT22;156;48.738;9.228;2022-07-03T02:18:26;17.80;40.10
336;DHT22;156;48.738;9.228;2022-07-03T02:21:03;17.80;41.10
336;DHT22;156;48.738;9.228;2022-07-03T02:23:32;17.80;42.40
336;DHT22;156;48.738;9.228;2022-07-03T02:26:06;17.70;44.00
336;DHT22;156;48.738;9.228;2022-07-03T02:28:51;17.70;46.10
336;DHT22;156;48.738;9.228;2022-07-03T02:31:24;17.70;49.10
336;DHT22;156;48.738;9.228;2022-07-03T02:33:56;17.70;51.70
336;DHT22;156;48.738;9.228;2022-07-03T02:36:24;17.70;51.80
336;DHT22;156;48.738;9.228;2022-07-03T02:38:56;17.70;51.60
336;DHT22;156;48.738;9.228;2022-07-03T02:41:27;17.70;52.50
336;DHT22;156;48.738;9.228;2022-07-03T02:43:59;17.70;52.70
336;DHT22;156;48.738;9.228;2022-07-03T02:46:39;17.70;53.50
336;DHT22;156;48.738;9.228;2022-07-03T02:49:39;17.70;54.60
336;DHT22;156;48.738;9.228;2022-07-03T02:52:13;17.60;57.30
336;DHT22;156;48.738;9.228;2022-07-03T02:54:44;17.60;59.80
336;DHT22;156;48.738;9.228;2022-07-03T02:57:14;17.50;64.50
336;DHT22;156;48.738;9.228;2022-07-03T02:59:53;17.50;68.30
336;DHT22;156;48.738;9.228;2022-07-03T03:02:34;17.40;71.50
336;DHT22;156;48.738;9.228;2022-07-03T03:05:05;17.30;75.40
336;DHT22;156;48.738;9.228;2022-07-03T03:07:35;17.30;78.80
336;DHT22;156;48.738;9.228;2022-07-03T03:10:02;17.30;80.50
336;DHT22;156;48.738;9.228;2022-07-03T03:12:31;17.30;83.50
336;DHT22;156;48.738;9.228;2022-07-03T03:15:04;17.20;85.50
336;DHT22;156;48.738;9.228;2022-07-03T03:17:39;17.20;87.90
336;DHT22;156;48.738;9.228;2022-07-03T03:20:09;17.20;88.30
336;DHT22;156;48.738;9.228;2022-07-03T03:22:59;17.20;88.50
336;DHT22;156;48.738;9.228;2022-07-03T03:25:31;17.20;88.10
336;DHT22;156;48.738;9.228;2022-07-03T03:27:58;17.20;89.30
336;DHT22;156;48.738;9.228;2022-07-03T03:30:27;17.20;89.40
336;DHT22;156;48.738;9.228;2022-07-03T03:32:54;17.20;88.90
336;DHT22;156;48.738;9.228;2022-07-03T03:35:21;17.30;88.70
336;DHT22;156;48.738;9.228;2022-07-03T03:37:48;17.30;89.30
336;DHT22;156;48.738;9.228;2022-07-03T03:40:17;17.20;89.20
336;DHT22;156;48.738;9.228;2022-07-03T03:42:44;17.30;89.40
336;DHT22;156;48.738;9.228;2022-07-03T03:45:11;17.30;87.70
336;DHT22;156;48.738;9.228;2022-07-03T03:47:39;17.30;87.00
336;DHT22;156;48.738;9.228;2022-07-03T03:50:06;17.30;87.10
336;DHT22;156;48.738;9.228;2022-07-03T03:52:33;17.30;88.20
336;DHT22;156;48.738;9.228;2022-07-03T03:55:00;17.30;87.50
336;DHT22;156;48.738;9.228;2022-07-03T03:57:28;17.30;88.40
336;DHT22;156;48.738;9.228;2022-07-03T03:59:55;17.30;86.80
336;DHT22;156;48.738;9.228;2022-07-03T04:02:22;17.30;87.50
336;DHT22;156;48.738;9.228;2022-07-03T04:04:50;17.30;85.20
336;DHT22;156;48.738;9.228;2022-07-03T04:07:17;17.40;84.00
336;DHT22;156;48.738;9.228;2022-07-03T04:09:44;17.40;84.40
336;DHT22;156;48.738;9.228;2022-07-03T04:12:11;17.40;81.70
336;DHT22;156;48.738;9.228;2022-07-03T04:14:38;17.50;78.30
336;DHT22;156;48.738;9.228;2022-07-03T04:17:05;17.50;78.30
336;DHT22;156;48.738;9.228;2022-07-03T04:19:32;17.50;78.00
336;DHT22;156;48.738;9.228;2022-07-03T04:22:00;17.50;75.30
336;DHT22;156;48.738;9.228;2022-07-03T04:24:27;17.50;75.70
336;DHT22;156;48.738;9.228;2022-07-03T04:26:54;17.50;76.20
336;DHT22;156;48.738;9.228;2022-07-03T04:29:21;17.50;78.00
336;DHT22;156;48.738;9.228;2022-07-03T04:31:48;17.50;79.00
336;DHT22;156;48.738;9.228;2022-07-03T04:36:42;17.50;79.70
336;DHT22;156;48.738;9.228;2022-07-03T04:39:10;17.50;81.80
336;DHT22;156;48.738;9.228;2022-07-03T04:41:37;17.60;82.30
336;DHT22;156;48.738;9.228;2022-07-03T04:44:04;17.50;85.00
336;DHT22;156;48.738;9.228;2022-07-03T04:46:31;17.60;83.70
336;DHT22;156;48.738;9.228;2022-07-03T04:48:58;17.60;81.70
336;DHT22;156;48.738;9.228;2022-07-03T04:51:25;17.50;84.50
336;DHT22;156;48.738;9.228;2022-07-03T04:53:52;17.60;86.50
336;DHT22;156;48.738;9.228;2022-07-03T04:56:21;17.60;86.60
336;DHT22;156;48.738;9.228;2022-07-03T04:58:48;17.50;88.80
336;DHT22;156;48.738;9.228;2022-07-03T05:01:14;17.60;87.50
336;DHT22;156;48.738;9.228;2022-07-03T05:03:41;17.60;86.90
336;DHT22;156;48.738;9.228;2022-07-03T05:06:08;17.60;88.50
336;DHT22;156;48.738;9.228;2022-07-03T05:08:35;17.70;88.60
336;DHT22;156;48.738;9.228;2022-07-03T05:11:02;17.70;89.50
336;DHT22;156;48.738;9.228;2022-07-03T05:13:30;17.70;90.00
336;DHT22;156;48.738;9.228;2022-07-03T05:15:57;17.80;91.90
336;DHT22;156;48.738;9.228;2022-07-03T05:18:24;17.90;89.90
336;DHT22;156;48.738;9.228;2022-07-03T05:20:51;17.90;91.00
336;DHT22;156;48.738;9.228;2022-07-03T05:23:18;18.00;90.20
336;DHT22;156;48.738;9.228;2022-07-03T05:25:45;18.00;90.00
336;DHT22;156;48.738;9.228;2022-07-03T05:28:12;18.00;90.70
336;DHT22;156;48.738;9.228;2022-07-03T05:30:40;18.10;90.90
336;DHT22;156;48.738;9.228;2022-07-03T05:33:07;18.20;83.90
336;DHT22;156;48.738;9.228;2022-07-03T05:35:34;18.30;82.20
336;DHT22;156;48.738;9.228;2022-07-03T05:38:00;18.30;84.70
336;DHT22;156;48.738;9.228;2022-07-03T05:40:28;18.40;77.90
336;DHT22;156;48.738;9.228;2022-07-03T05:42:56;18.50;76.80
336;DHT22;156;48.738;9.228;2022-07-03T05:45:23;18.60;76.30
336;DHT22;156;48.738;9.228;2022-07-03T05:47:52;18.60;72.90
336;DHT22;156;48.738;9.228;2022-07-03T05:50:25;18.70;77.40
336;DHT22;156;48.738;9.228;2022-07-03T05:52:52;18.80;78.20
336;DHT22;156;48.738;9.228;2022-07-03T05:55:19;18.90;77.70
336;DHT22;156;48.738;9.228;2022-07-03T05:57:46;19.00;80.20
336;DHT22;156;48.738;9.228;2022-07-03T06:00:14;19.00;77.90
336;DHT22;156;48.738;9.228;2022-07-03T06:02:40;19.20;75.40
336;DHT22;156;48.738;9.228;2022-07-03T06:05:09;19.30;72.10
336;DHT22;156;48.738;9.228;2022-07-03T06:07:36;19.40;67.20
336;DHT22;156;48.738;9.228;2022-07-03T06:10:03;19.50;65.80
336;DHT22;156;48.738;9.228;2022-07-03T06:12:30;19.50;63.50
336;DHT22;156;48.738;9.228;2022-07-03T06:14:57;19.60;63.00
336;DHT22;156;48.738;9.228;2022-07-03T06:17:24;19.70;56.20
336;DHT22;156;48.738;9.228;2022-07-03T06:19:51;19.60;51.40
336;DHT22;156;48.738;9.228;2022-07-03T06:22:19;19.70;52.60
336;DHT22;156;48.738;9.228;2022-07-03T06:24:46;19.70;55.30
336;DHT22;156;48.738;9.228;2022-07-03T06:27:13;19.80;53.50
336;DHT22;156;48.738;9.228;2022-07-03T06:29:40;20.00;49.70
336;DHT22;156;48.738;9.228;2022-07-03T06:32:07;20.00;48.30
336;DHT22;156;48.738;9.228;2022-07-03T06:34:34;20.10;48.80
336;DHT22;156;48.738;9.228;2022-07-03T06:37:01;20.10;52.70
336;DHT22;156;48.738;9.228;2022-07-03T06:39:29;20.20;53.00
336;DHT22;156;48.738;9.228;2022-07-03T06:41:56;20.30;49.40
336;DHT22;156;48.738;9.228;2022-07-03T06:44:23;20.30;43.30
336;DHT22;156;48.738;9.228;2022-07-03T06:46:50;20.40;45.20
336;DHT22;156;48.738;9.228;2022-07-03T06:49:17;20.60;44.70
336;DHT22;156;48.738;9.228;2022-07-03T06:51:44;20.70;44.00
336;DHT22;156;48.738;9.228;2022-07-03T06:54:11;20.80;33.10
336;DHT22;156;48.738;9.228;2022-07-03T06:56:39;20.90;33.70
336;DHT22;156;48.738;9.228;2022-07-03T06:59:07;20.90;30.10
336;DHT22;156;48.738;9.228;2022-07-03T07:01:34;21.00;27.60
336;DHT22;156;48.738;9.228;2022-07-03T07:04:01;21.10;28.70
336;DHT22;156;48.738;9.228;2022-07-03T07:06:28;21.10;25.20
336;DHT22;156;48.738;9.228;2022-07-03T07:08:55;21.20;24.80
336;DHT22;156;48.738;9.228;2022-07-03T07:11:22;21.30;12.90
336;DHT22;156;48.738;9.228;2022-07-03T07:13:50;21.30;12.00
336;DHT22;156;48.738;9.228;2022-07-03T07:16:17;21.40;11.90
336;DHT22;156;48.738;9.228;2022-07-03T07:18:44;21.50;6.00
336;DHT22;156;48.738;9.228;2022-07-03T07:21:11;21.60;5.10
336;DHT22;156;48.738;9.228;2022-07-03T07:23:38;21.70;1.00
336;DHT22;156;48.738;9.228;2022-07-03T07:26:05;21.90;2.80
336;DHT22;156;48.738;9.228;2022-07-03T07:28:33;21.90;1.00
336;DHT22;156;48.738;9.228;2022-07-03T07:31:02;21.90;1.00
336;DHT22;156;48.738;9.228;2022-07-03T07:33:29;22.10;1.00
336;DHT22;156;48.738;9.228;2022-07-03T07:35:56;22.10;1.00
336;DHT22;156;48.738;9.228;2022-07-03T07:38:23;22.30;1.00
336;DHT22;156;48.738;9.228;2022-07-03T07:40:50;22.30;1.00
336;DHT22;156;48.738;9.228;2022-07-03T07:43:19;22.50;1.00
336;DHT22;156;48.738;9.228;2022-07-03T07:45:46;22.60;1.00
336;DHT22;156;48.738;9.228;2022-07-03T07:48:15;22.70;1.00
336;DHT22;156;48.738;9.228;2022-07-03T07:50:43;22.80;1.00
336;DHT22;156;48.738;9.228;2022-07-03T07:53:10;22.90;1.00
336;DHT22;156;48.738;9.228;2022-07-03T07:55:37;22.80;1.00
336;DHT22;156;48.738;9.228;2022-07-03T07:58:04;22.90;1.00
336;DHT22;156;48.738;9.228;2022-07-03T08:00:31;22.80;1.00
336;DHT22;156;48.738;9.228;2022-07-03T08:02:58;22.90;1.00
336;DHT22;156;48.738;9.228;2022-07-03T08:05:43;23.00;1.00
336;DHT22;156;48.738;9.228;2022-07-03T08:08:11;23.10;1.00
336;DHT22;156;48.738;9.228;2022-07-03T08:10:40;23.10;1.00
336;DHT22;156;48.738;9.228;2022-07-03T08:13:08;23.20;1.00
336;DHT22;156;48.738;9.228;2022-07-03T08:15:36;23.30;1.00
336;DHT22;156;48.738;9.228;2022-07-03T08:18:03;23.20;1.00
336;DHT22;156;48.738;9.228;2022-07-03T08:20:31;23.20;1.00
336;DHT22;156;48.738;9.228;2022-07-03T08:22:59;23.20;1.00
336;DHT22;156;48.738;9.228;2022-07-03T08:25:26;23.30;1.00
336;DHT22;156;48.738;9.228;2022-07-03T08:27:53;23.10;1.00
336;DHT22;156;48.738;9.228;2022-07-03T08:30:20;23.10;1.00
336;DHT22;156;48.738;9.228;2022-07-03T08:32:49;23.30;1.00
336;DHT22;156;48.738;9.228;2022-07-03T08:35:17;23.30;1.00
336;DHT22;156;48.738;9.228;2022-07-03T08:37:44;23.50;1.00
336;DHT22;156;48.738;9.228;2022-07-03T08:40:15;23.50;1.00
336;DHT22;156;48.738;9.228;2022-07-03T08:42:45;23.50;1.00
336;DHT22;156;48.738;9.228;2022-07-03T08:45:14;23.50;1.00
336;DHT22;156;48.738;9.228;2022-07-03T08:47:42;23.50;1.00
336;DHT22;156;48.738;9.228;2022-07-03T08:50:10;23.60;1.00
336;DHT22;156;48.738;9.228;2022-07-03T08:52:37;23.70;1.00
336;DHT22;156;48.738;9.228;2022-07-03T08:55:10;23.90;1.00
336;DHT22;156;48.738;9.228;2022-07-03T08:57:41;23.90;1.00
336;DHT22;156;48.738;9.228;2022-07-03T09:00:10;24.00;1.00
336;DHT22;156;48.738;9.228;2022-07-03T09:02:39;24.00;1.00
336;DHT22;156;48.738;9.228;2022-07-03T09:05:07;24.10;1.00
336;DHT22;156;48.738;9.228;2022-07-03T09:07:35;24.20;1.00
336;DHT22;156;48.738;9.228;2022-07-03T09:10:03;24.30;1.00
336;DHT22;156;48.738;9.228;2022-07-03T09:12:31;24.30;1.00
336;DHT22;156;48.738;9.228;2022-07-03T09:14:59;24.20;1.00
336;DHT22;156;48.738;9.228;2022-07-03T09:17:27;24.30;1.00
336;DHT22;156;48.738;9.228;2022-07-03T09:19:54;24.40;1.00
336;DHT22;156;48.738;9.228;2022-07-03T09:22:25;24.30;1.00
336;DHT22;156;48.738;9.228;2022-07-03T09:24:54;24.20;1.00
336;DHT22;156;48.738;9.228;2022-07-03T09:27:29;24.20;1.00
336;DHT22;156;48.738;9.228;2022-07-03T09:30:03;24.30;1.00
336;DHT22;156;48.738;9.228;2022-07-03T09:32:41;24.40;1.00
336;DHT22;156;48.738;9.228;2022-07-03T09:35:18;24.60;1.00
336;DHT22;156;48.738;9.228;2022-07-03T09:37:53;24.70;1.00
336;DHT22;156;48.738;9.228;2022-07-03T09:40:21;24.80;1.00
336;DHT22;156;48.738;9.228;2022-07-03T09:42:59;24.70;1.00
336;DHT22;156;48.738;9.228;2022-07-03T09:45:28;24.80;1.00
336;DHT22;156;48.738;9.228;2022-07-03T09:48:21;24.80;1.00
336;DHT22;156;48.738;9.228;2022-07-03T09:50:48;24.70;1.00
336;DHT22;156;48.738;9.228;2022-07-03T09:53:15;24.80;1.00
336;DHT22;156;48.738;9.228;2022-07-03T09:55:55;24.90;1.00
336;DHT22;156;48.738;9.228;2022-07-03T09:58:23;24.90;1.00
336;DHT22;156;48.738;9.228;2022-07-03T10:00:51;24.60;1.00
336;DHT22;156;48.738;9.228;2022-07-03T10:03:20;24.70;1.00
336;DHT22;156;48.738;9.228;2022-07-03T10:05:47;24.80;1.00
336;DHT22;156;48.738;9.228;2022-07-03T10:08:14;25.00;1.00
336;DHT22;156;48.738;9.228;2022-07-03T10:10:44;25.10;1.00
336;DHT22;156;48.738;9.228;2022-07-03T10:13:12;25.10;1.00
336;DHT22;156;48.738;9.228;2022-07-03T10:15:40;25.10;1.00
336;DHT22;156;48.738;9.228;2022-07-03T10:18:11;25.00;1.00
336;DHT22;156;48.738;9.228;2022-07-03T10:20:45;25.20;1.00
336;DHT22;156;48.738;9.228;2022-07-03T10:23:12;25.40;1.00
336;DHT22;156;48.738;9.228;2022-07-03T10:25:44;25.50;1.00
336;DHT22;156;48.738;9.228;2022-07-03T10:28:15;25.70;1.00
336;DHT22;156;48.738;9.228;2022-07-03T10:30:44;25.70;1.00
336;DHT22;156;48.738;9.228;2022-07-03T10:33:13;25.60;1.00
336;DHT22;156;48.738;9.228;2022-07-03T10:35:43;25.70;1.00
336;DHT22;156;48.738;9.228;2022-07-03T10:38:25;25.80;1.00
336;DHT22;156;48.738;9.228;2022-07-03T10:41:01;25.80;1.00
336;DHT22;156;48.738;9.228;2022-07-03T10:43:48;25.80;1.00
336;DHT22;156;48.738;9.228;2022-07-03T10:46:33;25.90;1.00
336;DHT22;156;48.738;9.228;2022-07-03T10:49:05;26.00;1.00
336;DHT22;156;48.738;9.228;2022-07-03T10:51:51;26.00;1.00
336;DHT22;156;48.738;9.228;2022-07-03T10:54:20;25.90;1.00
336;DHT22;156;48.738;9.228;2022-07-03T10:57:14;26.10;1.00
336;DHT22;156;48.738;9.228;2022-07-03T11:00:14;26.10;1.00
336;DHT22;156;48.738;9.228;2022-07-03T11:02:43;26.20;1.00
336;DHT22;156;48.738;9.228;2022-07-03T11:05:13;26.40;1.00
336;DHT22;156;48.738;9.228;2022-07-03T11:08:03;26.40;1.00
336;DHT22;156;48.738;9.228;2022-07-03T11:10:33;26.50;1.00
336;DHT22;156;48.738;9.228;2022-07-03T11:13:05;26.60;1.00
336;DHT22;156;48.738;9.228;2022-07-03T11:15:33;26.50;1.00
336;DHT22;156;48.738;9.228;2022-07-03T11:18:14;26.60;1.00
336;DHT22;156;48.738;9.228;2022-07-03T11:27:18;26.70;1.00
336;DHT22;156;48.738;9.228;2022-07-03T11:29:56;26.80;1.00
336;DHT22;156;48.738;9.228;2022-07-03T11:32:44;26.80;1.00
336;DHT22;156;48.738;9.228;2022-07-03T11:35:50;26.80;1.00
336;DHT22;156;48.738;9.228;2022-07-03T11:38:26;26.80;1.00
336;DHT22;156;48.738;9.228;2022-07-03T11:40:55;26.90;1.00
336;DHT22;156;48.738;9.228;2022-07-03T11:43:22;26.80;1.00
336;DHT22;156;48.738;9.228;2022-07-03T11:45:49;26.80;1.00
336;DHT22;156;48.738;9.228;2022-07-03T11:48:18;26.90;1.00
336;DHT22;156;48.738;9.228;2022-07-03T11:50:46;27.00;1.00
336;DHT22;156;48.738;9.228;2022-07-03T11:53:18;27.20;1.00
336;DHT22;156;48.738;9.228;2022-07-03T11:55:51;27.30;1.00
336;DHT22;156;48.738;9.228;2022-07-03T11:58:18;27.40;1.00
336;DHT22;156;48.738;9.228;2022-07-03T12:00:45;27.20;1.00
336;DHT22;156;48.738;9.228;2022-07-03T12:03:20;27.10;1.00
336;DHT22;156;48.738;9.228;2022-07-03T12:05:53;27.10;1.00
336;DHT22;156;48.738;9.228;2022-07-03T12:08:28;27.40;1.00
336;DHT22;156;48.738;9.228;2022-07-03T12:11:03;27.50;1.00
336;DHT22;156;48.738;9.228;2022-07-03T12:13:30;27.50;1.00
336;DHT22;156;48.738;9.228;2022-07-03T12:16:05;27.60;1.00
336;DHT22;156;48.738;9.228;2022-07-03T12:18:47;27.70;1.00
336;DHT22;156;48.738;9.228;2022-07-03T12:21:15;27.90;1.00
336;DHT22;156;48.738;9.228;2022-07-03T12:23:47;28.10;1.00
336;DHT22;156;48.738;9.228;2022-07-03T12:26:27;28.10;1.00
336;DHT22;156;48.738;9.228;2022-07-03T12:28:56;28.20;1.00
336;DHT22;156;48.738;9.228;2022-07-03T12:31:23;28.30;1.00
336;DHT22;156;48.738;9.228;2022-07-03T12:33:51;28.30;1.00
336;DHT22;156;48.738;9.228;2022-07-03T12:36:18;28.40;1.00
336;DHT22;156;48.738;9.228;2022-07-03T12:38:47;28.40;1.00
336;DHT22;156;48.738;9.228;2022-07-03T12:41:16;28.40;1.00
336;DHT22;156;48.738;9.228;2022-07-03T12:43:45;28.50;1.00
336;DHT22;156;48.738;9.228;2022-07-03T12:46:17;28.70;1.00
336;DHT22;156;48.738;9.228;2022-07-03T12:48:45;28.40;1.00
336;DHT22;156;48.738;9.228;2022-07-03T12:51:12;28.40;1.00
336;DHT22;156;48.738;9.228;2022-07-03T12:53:39;28.90;1.00
336;DHT22;156;48.738;9.228;2022-07-03T12:56:08;29.40;1.00
336;DHT22;156;48.738;9.228;2022-07-03T12:58:38;29.80;1.00
336;DHT22;156;48.738;9.228;2022-07-03T13:01:27;30.30;1.00
336;DHT22;156;48.738;9.228;2022-07-03T13:03:54;30.40;1.00
336;DHT22;156;48.738;9.228;2022-07-03T13:06:22;30.60;1.00
336;DHT22;156;48.738;9.228;2022-07-03T13:08:54;30.90;1.00
336;DHT22;156;48.738;9.228;2022-07-03T13:11:32;31.20;1.00
336;DHT22;156;48.738;9.228;2022-07-03T13:14:11;31.40;1.00
336;DHT22;156;48.738;9.228;2022-07-03T13:16:40;31.80;1.00
336;DHT22;156;48.738;9.228;2022-07-03T13:19:09;31.40;1.00
336;DHT22;156;48.738;9.228;2022-07-03T13:21:36;31.90;1.00
336;DHT22;156;48.738;9.228;2022-07-03T13:24:04;31.70;1.00
336;DHT22;156;48.738;9.228;2022-07-03T13:26:31;30.60;1.00
336;DHT22;156;48.738;9.228;2022-07-03T13:28:58;30.50;1.00
336;DHT22;156;48.738;9.228;2022-07-03T13:31:27;30.70;1.00
336;DHT22;156;48.738;9.228;2022-07-03T13:33:54;30.50;1.00
336;DHT22;156;48.738;9.228;2022-07-03T13:36:21;31.00;1.00
336;DHT22;156;48.738;9.228;2022-07-03T13:38:48;31.50;1.00
336;DHT22;156;48.738;9.228;2022-07-03T13:41:15;32.20;1.00
336;DHT22;156;48.738;9.228;2022-07-03T13:43:44;32.50;1.00
336;DHT22;156;48.738;9.228;2022-07-03T13:46:11;32.50;1.00
336;DHT22;156;48.738;9.228;2022-07-03T13:48:39;32.30;1.00
336;DHT22;156;48.738;9.228;2022-07-03T13:51:06;31.40;1.00
336;DHT22;156;48.738;9.228;2022-07-03T13:53:33;30.50;1.00
336;DHT22;156;48.738;9.228;2022-07-03T13:56:00;30.90;1.00
336;DHT22;156;48.738;9.228;2022-07-03T13:58:27;31.40;1.00
336;DHT22;156;48.738;9.228;2022-07-03T14:00:55;31.80;1.00
336;DHT22;156;48.738;9.228;2022-07-03T14:03:23;31.50;1.00
336;DHT22;156;48.738;9.228;2022-07-03T14:05:51;31.50;1.00
336;DHT22;156;48.738;9.228;2022-07-03T14:08:18;31.50;1.00
336;DHT22;156;48.738;9.228;2022-07-03T14:10:45;31.60;1.00
336;DHT22;156;48.738;9.228;2022-07-03T14:13:13;31.50;1.00
336;DHT22;156;48.738;9.228;2022-07-03T14:15:39;31.40;1.00
336;DHT22;156;48.738;9.228;2022-07-03T14:18:06;31.40;1.00
336;DHT22;156;48.738;9.228;2022-07-03T14:20:33;31.50;1.00
336;DHT22;156;48.738;9.228;2022-07-03T14:23:01;31.30;1.00
336;DHT22;156;48.738;9.228;2022-07-03T14:25:28;31.10;1.00
336;DHT22;156;48.738;9.228;2022-07-03T14:27:55;31.00;1.00
336;DHT22;156;48.738;9.228;2022-07-03T14:30:42;30.80;1.00
336;DHT22;156;48.738;9.228;2022-07-03T14:33:26;31.00;1.00
336;DHT22;156;48.738;9.228;2022-07-03T14:35:53;31.00;1.00
336;DHT22;156;48.738;9.228;2022-07-03T14:38:21;30.90;1.00
336;DHT22;156;48.738;9.228;2022-07-03T14:40:48;31.30;1.00
336;DHT22;156;48.738;9.228;2022-07-03T14:43:17;31.00;1.00
336;DHT22;156;48.738;9.228;2022-07-03T14:45:44;31.00;1.00
336;DHT22;156;48.738;9.228;2022-07-03T14:48:11;31.00;1.00
336;DHT22;156;48.738;9.228;2022-07-03T14:50:37;30.60;1.00
336;DHT22;156;48.738;9.228;2022-07-03T14:53:05;30.80;1.00
336;DHT22;156;48.738;9.228;2022-07-03T14:55:38;30.60;1.00
336;DHT22;156;48.738;9.228;2022-07-03T14:58:16;30.40;1.00
336;DHT22;156;48.738;9.228;2022-07-03T15:00:47;30.40;1.00
336;DHT22;156;48.738;9.228;2022-07-03T15:03:27;30.80;1.00
336;DHT22;156;48.738;9.228;2022-07-03T15:05:56;30.80;1.00
336;DHT22;156;48.738;9.228;2022-07-03T15:08:42;31.10;1.00
336;DHT22;156;48.738;9.228;2022-07-03T15:11:15;31.20;1.00
336;DHT22;156;48.738;9.228;2022-07-03T15:14:02;31.50;1.00
336;DHT22;156;48.738;9.228;2022-07-03T15:16:31;31.30;1.00
336;DHT22;156;48.738;9.228;2022-07-03T15:18:59;31.50;1.00
336;DHT22;156;48.738;9.228;2022-07-03T15:21:28;31.60;1.00
336;DHT22;156;48.738;9.228;2022-07-03T15:23:57;31.60;1.00
336;DHT22;156;48.738;9.228;2022-07-03T15:26:26;31.50;1.00
336;DHT22;156;48.738;9.228;2022-07-03T15:28:54;31.30;1.00
336;DHT22;156;48.738;9.228;2022-07-03T15:31:21;31.20;1.00
336;DHT22;156;48.738;9.228;2022-07-03T15:33:48;31.30;1.00
336;DHT22;156;48.738;9.228;2022-07-03T15:36:17;31.60;1.00
336;DHT22;156;48.738;9.228;2022-07-03T15:38:54;31.80;1.00
336;DHT22;156;48.738;9.228;2022-07-03T15:41:28;32.00;1.00
336;DHT22;156;48.738;9.228;2022-07-03T15:44:19;32.20;1.00
336;DHT22;156;48.738;9.228;2022-07-03T15:47:01;32.50;1.00
336;DHT22;156;48.738;9.228;2022-07-03T15:49:36;33.10;1.00
336;DHT22;156;48.738;9.228;2022-07-03T15:52:16;32.70;1.00
336;DHT22;156;48.738;9.228;2022-07-03T15:54:53;33.40;1.00
336;DHT22;156;48.738;9.228;2022-07-03T15:57:28;33.20;1.00
336;DHT22;156;48.738;9.228;2022-07-03T15:59:59;33.00;1.00
336;DHT22;156;48.738;9.228;2022-07-03T16:02:38;32.70;1.00
336;DHT22;156;48.738;9.228;2022-07-03T16:05:09;32.50;1.00
336;DHT22;156;48.738;9.228;2022-07-03T16:07:40;32.30;1.00
336;DHT22;156;48.738;9.228;2022-07-03T16:10:10;32.60;1.00
336;DHT22;156;48.738;9.228;2022-07-03T16:12:39;32.90;1.00
336;DHT22;156;48.738;9.228;2022-07-03T16:15:09;32.90;1.00
336;DHT22;156;48.738;9.228;2022-07-03T16:17:36;32.80;1.00
336;DHT22;156;48.738;9.228;2022-07-03T16:20:06;32.80;1.00
336;DHT22;156;48.738;9.228;2022-07-03T16:22:34;33.10;1.00
336;DHT22;156;48.738;9.228;2022-07-03T16:25:03;33.30;1.00
336;DHT22;156;48.738;9.228;2022-07-03T16:27:30;33.20;1.00
336;DHT22;156;48.738;9.228;2022-07-03T16:30:04;33.10;1.00
336;DHT22;156;48.738;9.228;2022-07-03T16:32:35;33.30;1.00
336;DHT22;156;48.738;9.228;2022-07-03T16:35:05;33.50;1.00
336;DHT22;156;48.738;9.228;2022-07-03T16:37:39;33.10;1.00
336;DHT22;156;48.738;9.228;2022-07-03T16:40:09;33.00;1.00
336;DHT22;156;48.738;9.228;2022-07-03T16:42:44;32.60;1.00
336;DHT22;156;48.738;9.228;2022-07-03T16:45:13;32.30;1.00
336;DHT22;156;48.738;9.228;2022-07-03T16:47:42;32.40;1.00
336;DHT22;156;48.738;9.228;2022-07-03T16:50:12;32.80;1.00
336;DHT22;156;48.738;9.228;2022-07-03T16:52:43;33.20;1.00
336;DHT22;156;48.738;9.228;2022-07-03T16:55:11;33.40;1.00
336;DHT22;156;48.738;9.228;2022-07-03T16:57:44;32.80;1.00
336;DHT22;156;48.738;9.228;2022-07-03T17:00:16;32.80;1.00
336;DHT22;156;48.738;9.228;2022-07-03T17:02:45;32.00;1.00
336;DHT22;156;48.738;9.228;2022-07-03T17:05:15;31.70;1.00
336;DHT22;156;48.738;9.228;2022-07-03T17:07:47;31.90;1.00
336;DHT22;156;48.738;9.228;2022-07-03T17:10:20;32.40;1.00
336;DHT22;156;48.738;9.228;2022-07-03T17:12:51;32.40;1.00
336;DHT22;156;48.738;9.228;2022-07-03T17:15:22;32.30;1.00